CheckWX is a tool to help pilots better visualize weather data.  It is not intended as a substitute for an official pre-flight weather briefing.

00:37:17 UTC

ENOA METAR
Oseberg A Platform Heliport
Norway
Current

47 mins ago

ENOA 262350Z 28009KT 9999 OVC030 07/05 Q1021 W///S4
Observed
Mar-26 @ 23:50 UTC
Wind
  • 280° at 9 KTS
Visibility
10,000+ meters
Flight Rules
MVFR
Cloud Levels
  • Overcast at 3,000' AGL
Temperature
C / 45°F
Dewpoint
C / 41°F
Humidity
87%
Altimeter
30.15" Hg
Pressure
1020.92 hPa
Previous

2 hours ago

ENOA 262250Z 32010KT 9999 OVC025 07/05 Q1020 W///S5
Observed
Mar-26 @ 22:50 UTC
Wind
  • 320° at 10 KTS
Visibility
10,000+ meters
Flight Rules
MVFR
Cloud Levels
  • Overcast at 2,500' AGL
Temperature
C / 45°F
Dewpoint
C / 41°F
Humidity
87%
Altimeter
30.12" Hg
Pressure
1019.92 hPa
Previous

3 hours ago

ENOA 262150Z 34013KT 9999 OVC020 07/06 Q1020 W///S5
Observed
Mar-26 @ 21:50 UTC
Wind
  • 340° at 13 KTS
Visibility
10,000+ meters
Flight Rules
MVFR
Cloud Levels
  • Overcast at 2,000' AGL
Temperature
C / 45°F
Dewpoint
C / 43°F
Humidity
93%
Altimeter
30.12" Hg
Pressure
1019.92 hPa